Time;durP1;ratioP1;P1;durP2;ratioP2;P2;SDS_P1;SDS_P2;PMS_P1;PMS_P2;Temp;Humidity;BMP_temperature;BMP_pressure;BME280_temperature;BME280_humidity;BME280_pressure;Samples;Min_cycle;Max_cycle;Signal;HPM_P1;HPM_P2
2024/03/30 00:00:11;;;;;;;36.90;18.08;;;;;;;;;;6203653;23;20020;-51
2024/03/30 00:02:57;;;;;;;47.38;18.20;;;;;;;;;;6202396;23;20056;-49
2024/03/30 00:06:03;;;;;;;33.15;17.10;;;;;;;;;;6203279;23;20043;-48
2024/03/30 00:08:49;;;;;;;42.45;18.33;;;;;;;;;;6203043;23;20020;-58
2024/03/30 00:11:55;;;;;;;39.50;17.95;;;;;;;;;;6205023;23;20017;-59
2024/03/30 00:14:48;;;;;;;39.55;15.93;;;;;;;;;;6209062;23;20017;-59
2024/03/30 00:17:41;;;;;;;41.17;17.02;;;;;;;;;;6206903;23;20020;-59
2024/03/30 00:20:07;;;;;;;32.60;16.05;;;;;;;;;;6208403;23;20023;-58
2024/03/30 00:22:41;;;;;;;28.05;15.55;;;;;;;;;;6206875;23;20169;-56
2024/03/30 00:25:13;;;;;;;32.85;16.02;;;;;;;;;;6207567;23;20074;-58
2024/03/30 00:27:40;;;;;;;42.90;17.92;;;;;;;;;;6209390;23;20024;-50
2024/03/30 00:30:06;;;;;;;36.50;18.77;;;;;;;;;;6209615;23;20024;-51
2024/03/30 00:32:39;;;;;;;36.78;16.25;;;;;;;;;;6208709;23;20024;-49
2024/03/30 00:35:05;;;;;;;46.00;18.55;;;;;;;;;;6207733;23;20023;-53
2024/03/30 00:37:32;;;;;;;48.15;18.98;;;;;;;;;;6206845;23;20767;-62
2024/03/30 00:40:06;;;;;;;37.50;16.85;;;;;;;;;;6207998;23;20024;-62
2024/03/30 00:42:32;;;;;;;42.22;17.13;;;;;;;;;;6206534;23;20024;-61
2024/03/30 00:45:05;;;;;;;41.08;17.25;;;;;;;;;;6209171;23;20458;-62
2024/03/30 00:47:31;;;;;;;42.05;17.50;;;;;;;;;;6205563;23;20024;-61
2024/03/30 00:49:58;;;;;;;41.63;17.10;;;;;;;;;;6207468;23;20034;-62
2024/03/30 00:52:30;;;;;;;28.05;14.07;;;;;;;;;;6206765;23;20024;-62
2024/03/30 00:54:57;;;;;;;42.47;18.42;;;;;;;;;;6208702;23;20034;-62
2024/03/30 00:57:30;;;;;;;39.17;15.70;;;;;;;;;;6207932;23;20031;-62
2024/03/30 00:59:56;;;;;;;36.53;14.73;;;;;;;;;;6208845;23;20028;-62
2024/03/30 01:02:23;;;;;;;44.40;17.92;;;;;;;;;;6205576;23;20024;-63
2024/03/30 01:04:55;;;;;;;43.15;17.10;;;;;;;;;;6203983;23;20020;-61
2024/03/30 01:07:21;;;;;;;35.60;16.98;;;;;;;;;;6205941;23;20024;-60
2024/03/30 01:09:54;;;;;;;39.17;17.55;;;;;;;;;;6206970;23;20492;-56
2024/03/30 01:12:27;;;;;;;33.42;16.15;;;;;;;;;;6200758;23;20489;-59
2024/03/30 01:15:00;;;;;;;39.92;16.35;;;;;;;;;;6202132;23;20025;-56
2024/03/30 01:17:34;;;;;;;32.60;14.10;;;;;;;;;;6196923;23;20078;-58
2024/03/30 01:20:08;;;;;;;42.60;17.23;;;;;;;;;;6202500;23;20036;-58
2024/03/30 01:22:41;;;;;;;37.78;17.17;;;;;;;;;;6199342;23;20810;-58
2024/03/30 01:25:08;;;;;;;33.80;14.38;;;;;;;;;;6203796;23;20350;-49
2024/03/30 01:27:34;;;;;;;42.13;17.50;;;;;;;;;;6201661;23;20020;-51
2024/03/30 01:30:11;;;;;;;48.00;17.63;;;;;;;;;;6202896;23;20021;-51
2024/03/30 01:32:38;;;;;;;48.83;19.95;;;;;;;;;;6201244;23;20369;-48
2024/03/30 01:35:12;;;;;;;62.25;19.95;;;;;;;;;;6202433;23;20032;-60
2024/03/30 01:37:38;;;;;;;48.58;19.77;;;;;;;;;;6202335;23;20028;-59
2024/03/30 01:40:05;;;;;;;26.63;15.27;;;;;;;;;;6204361;23;20020;-59
2024/03/30 01:42:38;;;;;;;43.22;18.75;;;;;;;;;;6201605;23;20086;-60
2024/03/30 01:45:04;;;;;;;46.55;20.15;;;;;;;;;;6203119;23;20020;-59
2024/03/30 01:47:37;;;;;;;52.33;18.77;;;;;;;;;;6200020;23;20025;-60
2024/03/30 01:50:04;;;;;;;44.42;18.05;;;;;;;;;;6202736;23;20477;-60
2024/03/30 01:52:37;;;;;;;43.95;18.73;;;;;;;;;;6201535;23;20024;-61
2024/03/30 01:55:04;;;;;;;38.53;15.10;;;;;;;;;;6204042;23;20023;-61
2024/03/30 01:57:38;;;;;;;38.45;16.15;;;;;;;;;;6201783;23;20021;-61
2024/03/30 02:00:07;;;;;;;44.53;19.27;;;;;;;;;;6202538;23;20071;-61
2024/03/30 02:02:33;;;;;;;50.83;18.52;;;;;;;;;;6201753;23;20028;-58
2024/03/30 02:05:07;;;;;;;37.30;16.30;;;;;;;;;;6203667;23;20055;-54
2024/03/30 02:07:33;;;;;;;24.70;13.98;;;;;;;;;;6203168;23;20466;-60
2024/03/30 02:09:59;;;;;;;55.45;20.33;;;;;;;;;;6205123;23;20440;-60
2024/03/30 02:12:47;;;;;;;43.58;19.85;;;;;;;;;;6211161;23;20045;-59
2024/03/30 02:15:20;;;;;;;42.63;18.43;;;;;;;;;;6209188;23;20491;-59
2024/03/30 02:17:53;;;;;;;46.53;18.55;;;;;;;;;;6208381;23;20255;-60
2024/03/30 02:20:19;;;;;;;47.67;18.85;;;;;;;;;;6207621;23;20020;-53
2024/03/30 02:22:50;;;;;;;34.72;15.50;;;;;;;;;;6206185;23;20031;-51
2024/03/30 02:25:23;;;;;;;54.65;19.55;;;;;;;;;;6209233;23;20031;-45
2024/03/30 02:27:50;;;;;;;63.90;22.03;;;;;;;;;;6208600;23;20563;-50
2024/03/30 02:30:22;;;;;;;54.67;20.87;;;;;;;;;;6209113;23;20020;-64
2024/03/30 02:32:54;;;;;;;57.70;19.67;;;;;;;;;;6208123;23;20251;-48
2024/03/30 02:35:21;;;;;;;51.90;20.33;;;;;;;;;;6209284;23;20028;-60
2024/03/30 02:37:47;;;;;;;54.10;21.58;;;;;;;;;;6207680;23;20016;-60
2024/03/30 02:40:22;;;;;;;55.40;20.80;;;;;;;;;;6209451;23;20027;-59
2024/03/30 02:42:49;;;;;;;62.85;21.38;;;;;;;;;;6207628;23;20074;-59
2024/03/30 02:45:22;;;;;;;50.05;21.38;;;;;;;;;;6209612;23;20024;-60
2024/03/30 02:47:48;;;;;;;52.90;19.80;;;;;;;;;;6208743;23;20028;-59
2024/03/30 02:50:21;;;;;;;67.15;23.75;;;;;;;;;;6208112;23;20488;-62
2024/03/30 02:52:47;;;;;;;69.68;23.80;;;;;;;;;;6208064;23;20050;-63
2024/03/30 02:55:13;;;;;;;60.20;21.38;;;;;;;;;;6208448;23;20538;-63
2024/03/30 02:57:46;;;;;;;53.92;20.70;;;;;;;;;;6208672;23;20020;-63
2024/03/30 03:00:12;;;;;;;62.88;22.95;;;;;;;;;;6209027;23;20023;-61
2024/03/30 03:02:45;;;;;;;60.63;21.27;;;;;;;;;;6207279;23;20024;-63
2024/03/30 03:05:11;;;;;;;59.17;22.63;;;;;;;;;;6208504;23;20028;-62
2024/03/30 03:07:38;;;;;;;63.38;22.25;;;;;;;;;;6207810;23;20035;-63
2024/03/30 03:10:11;;;;;;;51.00;21.25;;;;;;;;;;6210164;23;20342;-63
2024/03/30 03:12:51;;;;;;;53.33;19.45;;;;;;;;;;6202188;23;20036;-63
2024/03/30 03:15:24;;;;;;;53.33;21.88;;;;;;;;;;6203836;23;20027;-63
2024/03/30 03:17:50;;;;;;;52.17;20.35;;;;;;;;;;6203747;23;20358;-60
2024/03/30 03:20:16;;;;;;;48.53;18.80;;;;;;;;;;6202601;23;20451;-60
2024/03/30 03:22:49;;;;;;;46.75;18.10;;;;;;;;;;6200605;23;20025;-60
2024/03/30 03:25:15;;;;;;;38.00;16.55;;;;;;;;;;6204588;23;20021;-60
2024/03/30 03:27:48;;;;;;;53.13;18.83;;;;;;;;;;6202574;23;20021;-52
2024/03/30 03:30:15;;;;;;;49.28;19.73;;;;;;;;;;6203417;23;20020;-46
2024/03/30 03:32:41;;;;;;;47.38;18.90;;;;;;;;;;6203495;23;20025;-65
2024/03/30 03:35:14;;;;;;;49.92;19.17;;;;;;;;;;6203395;23;20036;-64
2024/03/30 03:37:40;;;;;;;63.13;22.52;;;;;;;;;;6203773;23;20024;-65
2024/03/30 03:40:13;;;;;;;81.50;22.02;;;;;;;;;;6204690;23;20028;-64
2024/03/30 03:42:39;;;;;;;71.32;22.17;;;;;;;;;;6203256;23;20417;-65
2024/03/30 03:45:06;;;;;;;74.68;21.70;;;;;;;;;;6202971;23;20017;-65
2024/03/30 03:47:38;;;;;;;81.53;22.33;;;;;;;;;;6203396;23;20017;-59
2024/03/30 03:50:04;;;;;;;54.55;19.70;;;;;;;;;;6202768;23;20035;-58
2024/03/30 03:52:37;;;;;;;105.07;23.98;;;;;;;;;;6202811;23;20031;-61
2024/03/30 03:55:03;;;;;;;54.17;18.83;;;;;;;;;;6202762;23;20028;-59
2024/03/30 03:57:36;;;;;;;58.20;19.00;;;;;;;;;;6201215;23;20024;-59
2024/03/30 04:00:03;;;;;;;54.33;19.43;;;;;;;;;;6202979;23;20465;-49
2024/03/30 04:02:30;;;;;;;86.68;23.40;;;;;;;;;;6201699;23;20024;-45
2024/03/30 04:05:03;;;;;;;63.42;19.33;;;;;;;;;;6203077;23;20027;-52
2024/03/30 04:07:30;;;;;;;44.07;18.17;;;;;;;;;;6178583;23;20120;-47
2024/03/30 04:10:02;;;;;;;73.35;21.00;;;;;;;;;;6204156;23;20025;-47
2024/03/30 04:12:41;;;;;;;52.40;20.27;;;;;;;;;;6203461;23;20083;-50
2024/03/30 04:15:14;;;;;;;78.88;21.88;;;;;;;;;;6203602;23;20032;-50
2024/03/30 04:17:41;;;;;;;93.95;21.45;;;;;;;;;;6201406;23;20098;-48
2024/03/30 04:20:07;;;;;;;65.60;20.37;;;;;;;;;;6201390;23;20071;-47
2024/03/30 04:22:40;;;;;;;64.65;18.17;;;;;;;;;;6202263;23;20035;-50
2024/03/30 04:25:07;;;;;;;72.63;19.85;;;;;;;;;;6202376;23;20721;-63
2024/03/30 04:27:41;;;;;;;106.45;20.52;;;;;;;;;;6202581;23;20082;-48
2024/03/30 04:30:07;;;;;;;72.45;20.05;;;;;;;;;;6201876;23;20091;-51
2024/03/30 04:32:34;;;;;;;59.13;17.73;;;;;;;;;;6201681;23;20453;-47
2024/03/30 04:35:06;;;;;;;57.80;16.77;;;;;;;;;;6203471;23;20454;-46
2024/03/30 04:37:32;;;;;;;58.03;17.33;;;;;;;;;;6202532;23;20409;-46
2024/03/30 04:40:05;;;;;;;41.20;16.15;;;;;;;;;;6202920;23;20090;-48
2024/03/30 04:42:31;;;;;;;69.50;19.27;;;;;;;;;;6202957;23;20758;-60
2024/03/30 04:44:58;;;;;;;73.03;18.88;;;;;;;;;;6202613;23;20016;-60
2024/03/30 04:47:31;;;;;;;40.45;16.38;;;;;;;;;;6201457;23;20078;-60
2024/03/30 04:49:57;;;;;;;55.28;17.65;;;;;;;;;;6202841;23;20043;-60
2024/03/30 04:52:24;;;;;;;46.00;16.15;;;;;;;;;;6202837;23;20032;-60
2024/03/30 04:54:56;;;;;;;64.28;19.10;;;;;;;;;;6201838;23;20024;-48
2024/03/30 04:57:23;;;;;;;42.42;16.05;;;;;;;;;;6202527;23;20020;-60
2024/03/30 04:59:55;;;;;;;44.97;16.17;;;;;;;;;;6201349;23;20485;-60
2024/03/30 05:02:28;;;;;;;62.55;17.95;;;;;;;;;;6202581;23;20028;-59
2024/03/30 05:04:54;;;;;;;70.07;19.15;;;;;;;;;;6178766;23;20032;-60
2024/03/30 05:07:27;;;;;;;63.33;17.27;;;;;;;;;;6179132;23;20358;-61
2024/03/30 05:09:53;;;;;;;32.38;15.18;;;;;;;;;;6201066;23;20031;-60
2024/03/30 05:12:40;;;;;;;47.53;16.48;;;;;;;;;;6206480;23;20031;-63
2024/03/30 05:15:12;;;;;;;42.40;16.30;;;;;;;;;;6207862;23;20484;-62
2024/03/30 05:17:45;;;;;;;59.80;18.40;;;;;;;;;;6205099;23;20024;-63
2024/03/30 05:23:05;;;;;;;36.30;15.55;;;;;;;;;;6203748;23;20370;-59
2024/03/30 05:25:31;;;;;;;;;;;;;;;;;;6208812;23;20028;-63
2024/03/30 05:27:57;;;;;;;37.97;16.67;;;;;;;;;;6207411;23;19974;-63
2024/03/30 05:30:30;;;;;;;44.33;16.95;;;;;;;;;;6208485;23;20028;-63
2024/03/30 05:32:56;;;;;;;35.28;16.13;;;;;;;;;;6207916;23;20021;-63
2024/03/30 05:35:22;;;;;;;33.17;15.88;;;;;;;;;;6206663;23;20516;-63
2024/03/30 05:37:55;;;;;;;45.38;17.10;;;;;;;;;;6209217;23;20035;-62
2024/03/30 05:40:21;;;;;;;40.30;16.98;;;;;;;;;;6209931;23;20024;-61
2024/03/30 05:42:54;;;;;;;36.28;15.70;;;;;;;;;;6207990;23;20469;-61
2024/03/30 05:45:20;;;;;;;50.70;19.30;;;;;;;;;;6208465;23;20587;-61
2024/03/30 05:47:53;;;;;;;36.50;17.35;;;;;;;;;;6207734;23;20358;-61
2024/03/30 05:50:20;;;;;;;46.53;19.35;;;;;;;;;;6209492;23;20524;-46
2024/03/30 05:52:47;;;;;;;51.47;20.15;;;;;;;;;;6209336;23;20054;-64
2024/03/30 05:55:20;;;;;;;28.67;14.98;;;;;;;;;;6209585;23;20020;-59
2024/03/30 05:57:47;;;;;;;44.22;18.90;;;;;;;;;;6208507;23;20027;-59
2024/03/30 06:00:14;;;;;;;42.97;18.42;;;;;;;;;;6209197;23;20031;-60
2024/03/30 06:02:47;;;;;;;29.52;15.77;;;;;;;;;;6207541;23;20028;-60
2024/03/30 06:05:14;;;;;;;30.30;16.13;;;;;;;;;;6208538;23;20432;-59
2024/03/30 06:07:49;;;;;;;43.10;17.17;;;;;;;;;;6209812;23;20020;-60
2024/03/30 06:10:16;;;;;;;34.60;16.73;;;;;;;;;;6207763;23;20024;-51
2024/03/30 06:12:42;;;;;;;37.08;16.98;;;;;;;;;;6203526;23;20020;-48
2024/03/30 06:15:15;;;;;;;26.73;15.00;;;;;;;;;;6204189;23;20020;-45
2024/03/30 06:17:41;;;;;;;34.83;15.40;;;;;;;;;;6203244;23;20094;-46
2024/03/30 06:20:09;;;;;;;32.05;15.15;;;;;;;;;;6203107;23;20029;-64
2024/03/30 06:22:41;;;;;;;32.42;15.88;;;;;;;;;;6203714;23;20025;-59
2024/03/30 06:25:08;;;;;;;24.65;14.80;;;;;;;;;;6204146;23;20020;-60
2024/03/30 06:27:40;;;;;;;32.00;15.82;;;;;;;;;;6203309;23;20024;-61
2024/03/30 06:30:07;;;;;;;33.58;15.05;;;;;;;;;;6203742;23;20020;-60
2024/03/30 06:32:33;;;;;;;25.27;12.33;;;;;;;;;;6202400;23;20025;-60
2024/03/30 06:35:06;;;;;;;25.33;15.05;;;;;;;;;;6204867;23;20539;-60
2024/03/30 06:37:32;;;;;;;33.28;16.50;;;;;;;;;;6203868;23;20295;-65
2024/03/30 06:45:35;;;;;;;32.80;15.73;;;;;;;;;;6202541;23;20437;-66
2024/03/30 06:48:07;;;;;;;29.75;15.20;;;;;;;;;;6203279;23;20051;-50
2024/03/30 06:50:33;;;;;;;33.85;16.58;;;;;;;;;;6202897;23;20707;-59
2024/03/30 06:53:06;;;;;;;30.35;16.90;;;;;;;;;;6202694;23;20024;-60
2024/03/30 06:55:33;;;;;;;28.77;15.50;;;;;;;;;;6202555;23;20465;-58
2024/03/30 06:58:06;;;;;;;31.33;16.30;;;;;;;;;;6202513;23;20412;-59
2024/03/30 07:00:32;;;;;;;38.53;17.60;;;;;;;;;;6203065;23;20477;-60
2024/03/30 07:02:58;;;;;;;30.75;15.70;;;;;;;;;;6201274;23;20028;-59
2024/03/30 07:05:31;;;;;;;30.50;16.00;;;;;;;;;;6203406;23;20563;-61
2024/03/30 07:07:57;;;;;;;26.40;14.10;;;;;;;;;;6205452;23;20036;-61
2024/03/30 07:10:24;;;;;;;26.35;13.52;;;;;;;;;;6201743;23;20020;-60
2024/03/30 07:13:10;;;;;;;27.15;14.70;;;;;;;;;;6209255;23;20489;-61
2024/03/30 07:15:43;;;;;;;24.00;12.13;;;;;;;;;;6208452;23;20545;-58
2024/03/30 07:18:18;;;;;;;19.52;10.70;;;;;;;;;;6207282;23;20044;-60
2024/03/30 07:20:44;;;;;;;31.58;14.13;;;;;;;;;;6205910;23;20084;-60
2024/03/30 07:23:10;;;;;;;29.60;14.82;;;;;;;;;;6203353;23;20528;-60
2024/03/30 07:25:45;;;;;;;25.65;14.35;;;;;;;;;;6206132;23;20028;-61
2024/03/30 07:28:32;;;;;;;25.08;13.75;;;;;;;;;;6205556;23;20024;-62
2024/03/30 07:31:25;;;;;;;21.08;11.38;;;;;;;;;;6206181;23;20098;-61
2024/03/30 07:34:10;;;;;;;24.48;12.18;;;;;;;;;;6207847;23;20024;-63
2024/03/30 07:37:03;;;;;;;26.52;13.43;;;;;;;;;;6207780;23;20020;-59
2024/03/30 07:39:49;;;;;;;20.27;11.73;;;;;;;;;;6206576;23;20429;-58
2024/03/30 07:42:42;;;;;;;22.27;12.23;;;;;;;;;;6204767;23;20020;-59
2024/03/30 07:45:28;;;;;;;18.23;10.75;;;;;;;;;;6206321;23;20024;-58
2024/03/30 07:48:22;;;;;;;24.83;10.20;;;;;;;;;;6206431;23;20027;-60
2024/03/30 07:51:14;;;;;;;17.75;10.52;;;;;;;;;;6206423;23;20024;-60
2024/03/30 07:54:00;;;;;;;19.63;10.45;;;;;;;;;;6204981;23;20031;-62
2024/03/30 07:57:00;;;;;;;23.70;11.07;;;;;;;;;;6206742;23;20024;-61
2024/03/30 07:59:46;;;;;;;15.52;10.20;;;;;;;;;;6205798;23;20023;-61
2024/03/30 08:02:39;;;;;;;18.42;10.10;;;;;;;;;;6204911;23;20024;-61
2024/03/30 08:05:26;;;;;;;17.75;9.23;;;;;;;;;;6205204;23;20024;-61
2024/03/30 08:08:18;;;;;;;16.88;8.13;;;;;;;;;;6207900;23;20396;-61
2024/03/30 08:11:04;;;;;;;22.00;8.80;;;;;;;;;;6207771;23;20078;-59
2024/03/30 08:14:04;;;;;;;17.20;8.50;;;;;;;;;;6201120;23;20039;-64
2024/03/30 08:16:50;;;;;;;16.70;8.93;;;;;;;;;;6201762;23;20042;-64
2024/03/30 08:19:43;;;;;;;14.15;8.02;;;;;;;;;;6201516;23;20031;-65
2024/03/30 08:22:29;;;;;;;17.23;7.80;;;;;;;;;;6201581;23;20785;-65
2024/03/30 08:25:22;;;;;;;19.30;7.50;;;;;;;;;;6202009;23;20021;-65
2024/03/30 08:28:10;;;;;;;23.27;8.38;;;;;;;;;;6204502;23;20413;-65
2024/03/30 08:31:01;;;;;;;15.23;7.50;;;;;;;;;;6203483;23;20020;-62
2024/03/30 08:33:50;;;;;;;14.25;7.70;;;;;;;;;;6201573;23;20023;-64
2024/03/30 08:36:40;;;;;;;13.40;7.15;;;;;;;;;;6202241;23;20024;-64
2024/03/30 08:39:27;;;;;;;15.80;6.47;;;;;;;;;;6201814;23;20028;-64
2024/03/30 08:42:19;;;;;;;15.13;6.50;;;;;;;;;;6202272;23;20020;-64
2024/03/30 08:45:12;;;;;;;17.80;6.15;;;;;;;;;;6200499;23;20028;-64
2024/03/30 08:47:58;;;;;;;13.23;6.30;;;;;;;;;;6199164;23;20710;-64
2024/03/30 08:50:51;;;;;;;16.38;6.68;;;;;;;;;;6201378;23;20021;-64
2024/03/30 08:53:45;;;;;;;18.58;6.70;;;;;;;;;;6200433;23;20354;-64
2024/03/30 08:56:38;;;;;;;15.45;5.78;;;;;;;;;;6199569;23;20025;-64
2024/03/30 08:59:24;;;;;;;11.65;5.88;;;;;;;;;;6201639;23;20032;-64
2024/03/30 09:02:18;;;;;;;12.23;5.72;;;;;;;;;;6202330;23;20410;-63
2024/03/30 09:05:03;;;;;;;12.60;5.90;;;;;;;;;;6198211;23;20043;-64
2024/03/30 09:07:55;;;;;;;10.38;5.80;;;;;;;;;;6198662;23;20020;-48
2024/03/30 09:10:42;;;;;;;12.93;5.38;;;;;;;;;;6201624;23;20028;-62
2024/03/30 09:13:42;;;;;;;12.32;4.88;;;;;;;;;;6202723;23;20021;-61
2024/03/30 09:16:28;;;;;;;14.00;5.28;;;;;;;;;;6202738;23;20020;-62
2024/03/30 09:19:21;;;;;;;10.02;4.13;;;;;;;;;;6200297;23;20409;-61
2024/03/30 09:22:07;;;;;;;14.98;7.22;;;;;;;;;;6203874;23;20533;-62
2024/03/30 09:25:03;;;;;;;15.32;4.97;;;;;;;;;;6202997;23;20024;-60
2024/03/30 09:27:53;;;;;;;12.73;5.22;;;;;;;;;;6201346;23;20024;-60
2024/03/30 09:30:39;;;;;;;9.73;4.55;;;;;;;;;;6200699;23;20318;-60
2024/03/30 09:33:32;;;;;;;7.95;3.85;;;;;;;;;;6201674;23;20021;-61
2024/03/30 09:36:18;;;;;;;15.70;4.28;;;;;;;;;;6202241;23;20028;-61
2024/03/30 09:39:11;;;;;;;11.95;4.07;;;;;;;;;;6202952;23;20036;-60
2024/03/30 09:41:58;;;;;;;9.57;3.45;;;;;;;;;;6201912;23;20024;-51
2024/03/30 09:44:50;;;;;;;15.77;4.65;;;;;;;;;;6197638;23;20412;-62
2024/03/30 09:47:39;;;;;;;12.95;3.78;;;;;;;;;;6201053;23;20583;-62
2024/03/30 09:50:32;;;;;;;9.15;4.05;;;;;;;;;;6200122;23;20027;-62
2024/03/30 09:53:26;;;;;;;11.57;3.22;;;;;;;;;;6200111;23;20024;-62
2024/03/30 09:56:13;;;;;;;10.50;3.42;;;;;;;;;;6201846;23;20021;-63
2024/03/30 09:59:06;;;;;;;9.00;3.13;;;;;;;;;;6200684;23;20020;-63
2024/03/30 10:01:53;;;;;;;10.15;3.40;;;;;;;;;;6199832;23;20028;-64
2024/03/30 10:04:45;;;;;;;14.63;3.60;;;;;;;;;;6201413;23;20021;-63
2024/03/30 10:07:34;;;;;;;6.50;2.90;;;;;;;;;;6202515;23;20024;-63
2024/03/30 10:10:28;;;;;;;13.20;3.00;;;;;;;;;;6202697;23;20416;-62
2024/03/30 10:13:45;;;;;;;11.40;2.63;;;;;;;;;;6201883;23;20059;-62
2024/03/30 10:16:18;;;;;;;11.80;3.08;;;;;;;;;;6203735;23;20083;-62
2024/03/30 10:19:05;;;;;;;9.85;3.10;;;;;;;;;;6202363;23;20020;-60
2024/03/30 10:21:59;;;;;;;10.55;2.95;;;;;;;;;;6200865;23;20020;-62
2024/03/30 10:24:45;;;;;;;10.15;2.35;;;;;;;;;;6198650;23;20020;-63
2024/03/30 10:27:38;;;;;;;8.48;2.47;;;;;;;;;;6202815;23;20025;-62
2024/03/30 10:30:25;;;;;;;9.23;3.25;;;;;;;;;;6201960;23;20029;-62
2024/03/30 10:33:15;;;;;;;;;;;;;;;;;;6202008;23;20034;-62
2024/03/30 10:35:45;;;;;;;8.73;2.35;;;;;;;;;;6202538;23;19924;-63
2024/03/30 10:38:17;;;;;;;10.70;2.67;;;;;;;;;;6204993;23;20025;-61
2024/03/30 10:40:44;;;;;;;9.98;2.65;;;;;;;;;;6203853;23;20809;-60
2024/03/30 10:43:10;;;;;;;8.60;2.63;;;;;;;;;;6203366;23;20572;-60
2024/03/30 10:45:46;;;;;;;12.40;2.95;;;;;;;;;;6202685;23;20027;-61
2024/03/30 10:48:29;;;;;;;14.35;2.83;;;;;;;;;;6201440;23;20032;-60
2024/03/30 10:51:24;;;;;;;10.70;2.20;;;;;;;;;;6204857;23;20071;-61
2024/03/30 10:54:18;;;;;;;7.72;2.58;;;;;;;;;;6200915;23;20024;-60
2024/03/30 10:57:09;;;;;;;8.85;2.45;;;;;;;;;;6203531;23;20036;-48
2024/03/30 11:00:01;;;;;;;5.50;2.22;;;;;;;;;;6201239;23;20025;-53
2024/03/30 11:02:58;;;;;;;9.38;2.38;;;;;;;;;;6202194;23;20035;-54
2024/03/30 11:05:44;;;;;;;12.45;3.53;;;;;;;;;;6201111;23;20429;-61
2024/03/30 11:08:37;;;;;;;11.10;2.95;;;;;;;;;;6200378;23;20016;-63
2024/03/30 11:11:24;;;;;;;9.20;2.45;;;;;;;;;;6201784;23;20025;-61
2024/03/30 11:14:24;;;;;;;15.50;5.18;;;;;;;;;;6199966;23;20032;-61
2024/03/30 11:17:16;;;;;;;9.13;2.38;;;;;;;;;;6202580;23;20024;-60
2024/03/30 11:20:16;;;;;;;11.02;2.42;;;;;;;;;;6202973;23;20075;-60
2024/03/30 11:23:06;;;;;;;7.28;2.40;;;;;;;;;;6201280;23;20025;-60
2024/03/30 11:26:09;;;;;;;7.80;2.35;;;;;;;;;;6203751;23;20024;-65
2024/03/30 11:29:09;;;;;;;8.75;2.67;;;;;;;;;;6204148;23;20359;-60
2024/03/30 11:32:12;;;;;;;12.40;2.85;;;;;;;;;;6201767;23;20071;-60
2024/03/30 11:35:00;;;;;;;11.43;2.85;;;;;;;;;;6202262;23;20020;-60
2024/03/30 11:37:55;;;;;;;8.32;2.05;;;;;;;;;;6204694;23;20043;-60
2024/03/30 11:40:41;;;;;;;;;;;;;;;;;;6203331;23;20409;-61
2024/03/30 11:43:38;;;;;;;9.20;2.38;;;;;;;;;;6204089;23;19920;-51
2024/03/30 11:46:26;;;;;;;15.18;3.13;;;;;;;;;;6203494;23;20075;-54
2024/03/30 11:49:20;;;;;;;6.65;2.45;;;;;;;;;;6202110;23;20525;-52
2024/03/30 11:52:11;;;;;;;10.45;2.67;;;;;;;;;;6202198;23;20025;-53
2024/03/30 11:55:06;;;;;;;6.57;2.20;;;;;;;;;;6201408;23;20021;-61
2024/03/30 11:57:53;;;;;;;12.15;2.30;;;;;;;;;;6203437;23;20024;-66
2024/03/30 12:00:58;;;;;;;8.50;2.72;;;;;;;;;;6200870;23;20032;-67
2024/03/30 12:03:43;;;;;;;11.77;3.65;;;;;;;;;;6201926;23;20035;-67
2024/03/30 12:06:38;;;;;;;10.88;2.42;;;;;;;;;;6202915;23;20370;-67
2024/03/30 12:09:27;;;;;;;11.45;2.65;;;;;;;;;;6199245;23;20442;-67
2024/03/30 12:12:21;;;;;;;6.32;2.03;;;;;;;;;;6201652;23;20025;-62
2024/03/30 12:15:14;;;;;;;9.55;2.47;;;;;;;;;;6202092;23;20478;-59
2024/03/30 12:18:08;;;;;;;11.50;2.40;;;;;;;;;;6202842;23;20024;-59
2024/03/30 12:20:55;;;;;;;9.32;2.33;;;;;;;;;;6203789;23;20021;-59
2024/03/30 12:23:48;;;;;;;16.90;2.45;;;;;;;;;;6201126;23;20035;-59
2024/03/30 12:26:35;;;;;;;10.65;2.45;;;;;;;;;;6202581;23;20332;-60
2024/03/30 12:29:28;;;;;;;12.27;2.25;;;;;;;;;;6202683;23;20028;-64
2024/03/30 12:32:14;;;;;;;9.02;2.63;;;;;;;;;;6202173;23;20028;-63
2024/03/30 12:35:07;;;;;;;9.63;2.17;;;;;;;;;;6201351;23;20091;-63
2024/03/30 12:38:01;;;;;;;8.43;1.80;;;;;;;;;;6202710;23;20040;-63
2024/03/30 12:40:47;;;;;;;6.93;2.17;;;;;;;;;;6202499;23;20020;-61
2024/03/30 12:43:40;;;;;;;8.35;2.13;;;;;;;;;;6201696;23;20024;-61
2024/03/30 12:46:26;;;;;;;6.68;2.33;;;;;;;;;;6201350;23;20024;-61
2024/03/30 12:49:19;;;;;;;8.75;2.50;;;;;;;;;;6199152;23;20067;-61
2024/03/30 12:52:08;;;;;;;7.50;1.90;;;;;;;;;;6200623;23;20462;-61
2024/03/30 12:55:00;;;;;;;7.75;2.25;;;;;;;;;;6201796;23;20078;-61
2024/03/30 12:57:46;;;;;;;9.32;1.83;;;;;;;;;;6202486;23;20020;-67
2024/03/30 13:00:39;;;;;;;6.70;1.70;;;;;;;;;;6200417;23;20031;-67
2024/03/30 13:03:38;;;;;;;7.97;2.13;;;;;;;;;;6202410;23;20028;-66
2024/03/30 13:06:24;;;;;;;6.10;2.05;;;;;;;;;;6202403;23;20017;-67
2024/03/30 13:09:22;;;;;;;13.52;2.53;;;;;;;;;;6201889;23;20027;-60
2024/03/30 13:12:07;;;;;;;6.88;1.80;;;;;;;;;;6201699;23;20021;-51
2024/03/30 13:15:07;;;;;;;7.75;2.47;;;;;;;;;;6200922;23;20028;-53
2024/03/30 13:17:53;;;;;;;4.30;1.80;;;;;;;;;;6203115;23;20021;-49
2024/03/30 13:20:46;;;;;;;9.00;1.90;;;;;;;;;;6200744;23;20158;-52
2024/03/30 13:23:33;;;;;;;8.55;1.60;;;;;;;;;;6199754;23;20396;-50
2024/03/30 13:26:25;;;;;;;6.90;2.40;;;;;;;;;;6203343;23;20028;-68
2024/03/30 13:29:12;;;;;;;11.73;2.58;;;;;;;;;;6202852;23;20572;-67
2024/03/30 13:32:04;;;;;;;5.97;2.15;;;;;;;;;;6202954;23;20020;-67
2024/03/30 13:34:51;;;;;;;13.10;2.75;;;;;;;;;;6200512;23;20032;-67
2024/03/30 13:37:45;;;;;;;7.53;2.35;;;;;;;;;;6201317;23;20489;-51
2024/03/30 13:40:30;;;;;;;9.25;2.17;;;;;;;;;;6200776;23;20020;-51
2024/03/30 13:43:22;;;;;;;6.63;1.90;;;;;;;;;;6202725;23;20037;-54
2024/03/30 13:46:09;;;;;;;11.60;2.30;;;;;;;;;;6201949;23;20042;-52
2024/03/30 13:49:03;;;;;;;11.95;2.60;;;;;;;;;;6201629;23;20397;-52
2024/03/30 13:51:47;;;;;;;5.60;2.10;;;;;;;;;;6199849;23;20493;-48
2024/03/30 13:54:42;;;;;;;7.85;2.47;;;;;;;;;;6202236;23;20478;-62
2024/03/30 13:57:08;;;;;;;8.63;2.35;;;;;;;;;;6203037;23;20024;-68
2024/03/30 14:00:03;;;;;;;4.40;1.88;;;;;;;;;;6201909;23;20039;-60
2024/03/30 14:02:54;;;;;;;6.65;2.20;;;;;;;;;;6203830;23;20025;-60
2024/03/30 14:05:27;;;;;;;5.63;2.38;;;;;;;;;;6204209;23;20031;-60
2024/03/30 14:07:53;;;;;;;5.28;2.05;;;;;;;;;;6203797;23;20017;-60
2024/03/30 14:10:46;;;;;;;8.93;2.08;;;;;;;;;;6203665;23;20366;-60
2024/03/30 14:13:39;;;;;;;6.28;2.30;;;;;;;;;;6206661;23;20025;-62
2024/03/30 14:16:31;;;;;;;6.05;2.20;;;;;;;;;;6207585;23;20028;-55
2024/03/30 14:19:18;;;;;;;4.97;2.15;;;;;;;;;;6208105;23;20023;-55
2024/03/30 14:22:10;;;;;;;5.22;1.98;;;;;;;;;;6208572;23;20615;-53
2024/03/30 14:25:03;;;;;;;7.18;1.55;;;;;;;;;;6208437;23;20020;-54
2024/03/30 14:27:49;;;;;;;6.68;2.17;;;;;;;;;;6208365;23;20094;-55
2024/03/30 14:30:42;;;;;;;3.97;1.73;;;;;;;;;;6207365;23;20020;-54
2024/03/30 14:33:09;;;;;;;6.13;1.60;;;;;;;;;;6209852;23;20404;-65
2024/03/30 14:35:35;;;;;;;8.55;2.33;;;;;;;;;;6208715;23;20016;-51
2024/03/30 14:38:27;;;;;;;5.05;1.52;;;;;;;;;;6210484;23;20020;-50
2024/03/30 14:41:21;;;;;;;5.47;2.05;;;;;;;;;;6209998;23;20024;-52
2024/03/30 14:44:07;;;;;;;2.72;1.40;;;;;;;;;;6208536;23;20035;-53
2024/03/30 14:47:00;;;;;;;4.55;1.90;;;;;;;;;;6207792;23;20035;-49
2024/03/30 14:49:47;;;;;;;7.03;1.63;;;;;;;;;;6207476;23;20497;-67
2024/03/30 14:52:39;;;;;;;4.93;1.58;;;;;;;;;;6207639;23;20031;-60
2024/03/30 14:55:25;;;;;;;4.47;1.50;;;;;;;;;;6208272;23;20016;-60
2024/03/30 14:58:18;;;;;;;5.68;1.73;;;;;;;;;;6207587;23;20024;-60
2024/03/30 15:01:04;;;;;;;6.82;1.70;;;;;;;;;;6206008;23;20469;-60
2024/03/30 15:03:57;;;;;;;3.67;1.38;;;;;;;;;;6206901;23;20031;-60
2024/03/30 15:06:43;;;;;;;3.47;1.65;;;;;;;;;;6207504;23;20035;-60
2024/03/30 15:09:36;;;;;;;2.80;1.35;;;;;;;;;;6209961;23;20333;-52
2024/03/30 15:12:22;;;;;;;3.83;1.38;;;;;;;;;;6207547;23;20027;-67
2024/03/30 15:15:22;;;;;;;2.80;1.33;;;;;;;;;;6204105;23;20529;-67
2024/03/30 15:18:08;;;;;;;2.70;1.40;;;;;;;;;;6201379;23;20611;-66
2024/03/30 15:21:02;;;;;;;3.67;1.40;;;;;;;;;;6200641;23;20037;-66
2024/03/30 15:23:49;;;;;;;4.20;1.38;;;;;;;;;;6201473;23;20025;-67
2024/03/30 15:26:40;;;;;;;5.50;1.42;;;;;;;;;;6203823;23;20020;-67
2024/03/30 15:29:27;;;;;;;3.22;1.48;;;;;;;;;;6203911;23;20020;-67
2024/03/30 15:32:30;;;;;;;3.72;1.30;;;;;;;;;;6203186;23;20024;-68
2024/03/30 15:35:08;;;;;;;2.95;1.40;;;;;;;;;;6200491;23;20470;-67
2024/03/30 15:38:03;;;;;;;4.50;1.40;;;;;;;;;;6202833;23;20086;-60
2024/03/30 15:40:48;;;;;;;4.20;1.38;;;;;;;;;;6200923;23;20021;-60
2024/03/30 15:43:20;;;;;;;3.70;1.30;;;;;;;;;;6203720;23;20025;-59
2024/03/30 15:46:06;;;;;;;2.97;1.35;;;;;;;;;;6201727;23;20102;-60
2024/03/30 15:48:59;;;;;;;3.22;1.23;;;;;;;;;;6200944;23;20031;-60
2024/03/30 15:51:46;;;;;;;5.55;1.30;;;;;;;;;;6203123;23;20020;-60